Time;durP1;ratioP1;P1;durP2;ratioP2;P2;SDS_P1;SDS_P2;PMS_P1;PMS_P2;Temp;Humidity;BMP_temperature;BMP_pressure;BME280_temperature;BME280_humidity;BME280_pressure;Samples;Min_cycle;Max_cycle;Signal;HPM_P1;HPM_P2
2022/07/31 00:00:18;;;;;;;2.07;1.90;;;19.10;99.90;;;;;;493272;241;28806;-69
2022/07/31 00:02:18;;;;;;;1.87;1.77;;;19.10;99.90;;;;;;493327;241;28700;-68
2022/07/31 00:04:20;;;;;;;4.90;2.00;;;19.10;99.90;;;;;;493316;241;28663;-69
2022/07/31 00:06:21;;;;;;;1.80;1.70;;;19.10;99.90;;;;;;493218;241;28709;-71
2022/07/31 00:08:22;;;;;;;2.03;1.93;;;19.00;99.90;;;;;;493219;241;28683;-69
2022/07/31 00:10:23;;;;;;;2.00;1.90;;;18.90;99.90;;;;;;493271;241;28835;-69
2022/07/31 00:12:25;;;;;;;2.00;1.90;;;18.90;99.90;;;;;;493271;241;29051;-68
2022/07/31 00:14:26;;;;;;;1.80;1.70;;;18.90;99.90;;;;;;493303;241;28664;-68
2022/07/31 00:16:27;;;;;;;2.10;2.00;;;18.90;99.90;;;;;;493205;241;29300;-69
2022/07/31 00:18:28;;;;;;;1.93;1.83;;;18.80;99.90;;;;;;493280;241;29207;-68
2022/07/31 00:20:30;;;;;;;2.10;2.00;;;18.70;99.90;;;;;;493260;241;29280;-69
2022/07/31 00:22:31;;;;;;;1.80;1.70;;;18.70;99.90;;;;;;493267;241;28862;-68
2022/07/31 00:24:32;;;;;;;2.43;2.00;;;18.70;99.90;;;;;;493232;241;28736;-68
2022/07/31 00:26:33;;;;;;;1.73;1.63;;;18.70;99.90;;;;;;493226;241;28735;-69
2022/07/31 00:28:35;;;;;;;2.00;1.90;;;18.60;99.90;;;;;;492976;241;28678;-67
2022/07/31 00:30:36;;;;;;;1.73;1.63;;;18.50;99.90;;;;;;493264;241;28695;-69
2022/07/31 00:32:37;;;;;;;2.30;2.10;;;18.50;99.90;;;;;;493286;241;28816;-68
2022/07/31 00:34:38;;;;;;;3.10;1.90;;;18.40;99.90;;;;;;493280;241;28675;-68
2022/07/31 00:36:40;;;;;;;2.03;1.93;;;18.20;99.90;;;;;;492985;241;28728;-69
2022/07/31 00:38:41;;;;;;;1.77;1.67;;;18.20;99.90;;;;;;493265;241;28759;-67
2022/07/31 00:40:42;;;;;;;2.60;1.80;;;18.20;99.90;;;;;;493255;241;29263;-68
2022/07/31 00:42:43;;;;;;;1.90;1.80;;;18.10;99.90;;;;;;493273;241;29290;-71
2022/07/31 00:44:45;;;;;;;2.03;1.93;;;18.10;99.90;;;;;;493274;241;29239;-68
2022/07/31 00:46:46;;;;;;;2.07;1.87;;;18.00;99.90;;;;;;493196;241;29303;-70
2022/07/31 00:48:47;;;;;;;2.73;2.00;;;18.00;99.90;;;;;;493261;241;28822;-68
2022/07/31 00:50:49;;;;;;;2.10;2.00;;;18.00;99.90;;;;;;493272;241;28704;-68
2022/07/31 00:52:51;;;;;;;2.30;2.10;;;17.90;99.90;;;;;;493243;241;28724;-71
2022/07/31 00:54:52;;;;;;;1.90;1.80;;;17.90;99.90;;;;;;493277;241;28810;-69
2022/07/31 00:56:53;;;;;;;2.10;2.00;;;17.90;99.90;;;;;;493190;241;28821;-68
2022/07/31 00:58:55;;;;;;;1.90;1.80;;;17.90;99.90;;;;;;493245;241;29175;-68
2022/07/31 01:00:56;;;;;;;1.97;1.87;;;17.90;99.90;;;;;;493279;241;29284;-71
2022/07/31 01:02:57;;;;;;;2.13;2.03;;;17.90;99.90;;;;;;493273;241;29195;-68
2022/07/31 01:04:58;;;;;;;2.17;2.07;;;17.90;99.90;;;;;;493271;241;29190;-69
2022/07/31 01:06:59;;;;;;;2.00;1.90;;;17.90;99.90;;;;;;493183;241;28834;-68
2022/07/31 01:09:01;;;;;;;2.20;2.00;;;17.80;99.90;;;;;;493240;241;28789;-68
2022/07/31 01:11:02;;;;;;;2.30;1.97;;;17.70;99.90;;;;;;493171;241;28826;-68
2022/07/31 01:13:03;;;;;;;2.50;2.30;;;17.70;99.90;;;;;;492642;241;28655;-69
2022/07/31 01:15:04;;;;;;;1.70;1.60;;;17.70;99.90;;;;;;493234;241;28746;-70
2022/07/31 01:17:06;;;;;;;1.80;1.70;;;17.70;99.90;;;;;;493166;241;28771;-67
2022/07/31 01:19:07;;;;;;;1.97;1.83;;;17.70;99.90;;;;;;493247;241;28715;-68
2022/07/31 01:21:08;;;;;;;1.90;1.80;;;17.70;99.90;;;;;;493259;241;29059;-68
2022/07/31 01:23:09;;;;;;;2.10;2.00;;;17.70;99.90;;;;;;493269;241;29123;-68
2022/07/31 01:25:11;;;;;;;2.13;1.93;;;17.60;99.90;;;;;;493277;241;29184;-69
2022/07/31 01:27:12;;;;;;;2.23;2.03;;;17.50;99.90;;;;;;493218;241;29165;-68
2022/07/31 01:29:13;;;;;;;2.63;2.20;;;17.50;99.90;;;;;;493248;241;29193;-69
2022/07/31 01:31:14;;;;;;;1.90;1.80;;;17.40;99.90;;;;;;493215;241;28711;-68
2022/07/31 01:33:16;;;;;;;2.50;2.30;;;17.40;99.90;;;;;;493276;241;28674;-69
2022/07/31 01:35:17;;;;;;;2.27;2.07;;;17.40;99.90;;;;;;493120;241;28728;-69
2022/07/31 01:37:19;;;;;;;2.37;2.17;;;17.50;99.90;;;;;;493223;241;28754;-68
2022/07/31 01:39:19;;;;;;;2.90;2.20;;;17.50;99.90;;;;;;493200;241;28785;-69
2022/07/31 01:41:21;;;;;;;2.10;2.00;;;17.40;99.90;;;;;;493268;241;28703;-68
2022/07/31 01:43:22;;;;;;;2.33;2.10;;;17.40;99.90;;;;;;493263;241;28715;-68
2022/07/31 01:45:23;;;;;;;2.27;2.17;;;17.30;99.90;;;;;;493217;241;28683;-70
2022/07/31 01:47:24;;;;;;;2.50;2.30;;;17.30;99.90;;;;;;493209;241;28684;-68
2022/07/31 01:49:26;;;;;;;2.47;1.87;;;17.30;99.90;;;;;;493263;241;29250;-68
2022/07/31 01:51:27;;;;;;;2.30;2.17;;;17.30;99.90;;;;;;493292;241;29370;-72
2022/07/31 01:53:31;;;;;;;2.03;1.93;;;17.20;99.90;;;;;;493311;241;29153;-69
2022/07/31 01:55:29;;;;;;;1.80;1.70;;;17.20;99.90;;;;;;493101;241;28702;-70
2022/07/31 01:57:31;;;;;;;2.07;1.97;;;17.10;99.90;;;;;;493105;241;28736;-68
2022/07/31 01:59:32;;;;;;;2.40;2.00;;;17.10;99.90;;;;;;493257;241;28699;-68
2022/07/31 02:01:33;;;;;;;2.40;2.20;;;17.20;99.90;;;;;;493278;241;28690;-68
2022/07/31 02:03:34;;;;;;;1.93;1.83;;;17.20;99.90;;;;;;493267;241;28682;-69
2022/07/31 02:05:36;;;;;;;2.23;2.13;;;17.20;99.90;;;;;;493273;241;28711;-70
2022/07/31 02:07:37;;;;;;;2.40;1.90;;;17.20;99.90;;;;;;493182;241;28786;-69
2022/07/31 02:09:38;;;;;;;2.00;1.90;;;17.20;99.90;;;;;;493222;241;28710;-69
2022/07/31 02:11:40;;;;;;;2.10;2.00;;;17.20;99.90;;;;;;493261;241;29208;-71
2022/07/31 02:13:41;;;;;;;2.07;1.97;;;17.20;99.90;;;;;;493253;241;29312;-69
2022/07/31 02:15:42;;;;;;;1.90;1.80;;;17.10;99.90;;;;;;493266;241;29218;-70
2022/07/31 02:17:43;;;;;;;2.30;2.10;;;17.10;99.90;;;;;;493183;241;29135;-68
2022/07/31 02:19:44;;;;;;;2.07;1.97;;;17.00;99.90;;;;;;493249;241;29190;-69
2022/07/31 02:21:46;;;;;;;1.97;1.87;;;17.00;99.90;;;;;;493283;241;28700;-68
2022/07/31 02:23:47;;;;;;;1.70;1.60;;;17.00;99.90;;;;;;493257;241;28712;-68
2022/07/31 02:25:48;;;;;;;2.50;2.30;;;17.00;99.90;;;;;;493249;241;28778;-70
2022/07/31 02:27:49;;;;;;;1.80;1.70;;;17.00;99.90;;;;;;493188;241;28756;-68
2022/07/31 02:29:51;;;;;;;3.80;2.13;;;17.00;99.90;;;;;;493227;241;28699;-69
2022/07/31 02:31:54;;;;;;;2.63;2.00;;;17.00;99.90;;;;;;493264;241;28772;-67
2022/07/31 02:33:53;;;;;;;2.33;2.13;;;17.00;99.90;;;;;;493081;241;28681;-67
2022/07/31 02:35:55;;;;;;;2.20;2.00;;;17.00;99.90;;;;;;493075;241;28707;-70
2022/07/31 02:37:56;;;;;;;1.70;1.60;;;17.00;99.90;;;;;;493198;241;29136;-69
2022/07/31 02:39:57;;;;;;;2.13;2.03;;;17.00;99.90;;;;;;493238;241;29307;-68
2022/07/31 02:41:59;;;;;;;2.13;1.87;;;17.00;99.90;;;;;;493250;241;29887;-68
2022/07/31 02:44:00;;;;;;;2.00;1.90;;;16.90;99.90;;;;;;493223;241;29124;-67
2022/07/31 02:46:01;;;;;;;2.27;2.07;;;16.90;99.90;;;;;;493242;241;28703;-77
2022/07/31 02:48:02;;;;;;;2.23;1.97;;;16.90;99.90;;;;;;493240;241;28761;-67
2022/07/31 02:50:03;;;;;;;2.40;2.03;;;16.90;99.90;;;;;;493215;241;28805;-68
2022/07/31 02:52:05;;;;;;;2.17;2.07;;;16.90;99.90;;;;;;493245;241;28685;-68
2022/07/31 02:54:06;;;;;;;2.57;1.90;;;16.80;99.90;;;;;;493277;241;28657;-68
2022/07/31 02:56:08;;;;;;;1.97;1.87;;;16.80;99.90;;;;;;493200;241;28732;-71
2022/07/31 02:58:08;;;;;;;2.20;2.10;;;16.80;99.90;;;;;;493249;241;28669;-68
2022/07/31 03:00:10;;;;;;;2.10;2.00;;;16.90;99.90;;;;;;493249;241;28802;-68
2022/07/31 03:02:11;;;;;;;2.07;1.97;;;16.90;99.90;;;;;;493255;241;28671;-68
2022/07/31 03:04:12;;;;;;;2.10;2.00;;;17.00;99.90;;;;;;493288;241;29136;-69
2022/07/31 03:06:13;;;;;;;1.90;1.80;;;17.00;99.90;;;;;;493209;241;29194;-70
2022/07/31 03:08:15;;;;;;;2.17;2.07;;;17.00;99.90;;;;;;493266;241;29126;-68
2022/07/31 03:10:16;;;;;;;2.03;1.93;;;17.10;99.90;;;;;;493232;241;28719;-68
2022/07/31 03:12:17;;;;;;;1.90;1.80;;;17.10;99.90;;;;;;493223;241;28793;-71
2022/07/31 03:14:18;;;;;;;2.10;2.00;;;17.10;99.90;;;;;;493282;241;28773;-67
2022/07/31 03:16:20;;;;;;;1.90;1.80;;;17.10;99.90;;;;;;493212;241;28730;-71
2022/07/31 03:18:21;;;;;;;2.20;1.83;;;17.10;99.90;;;;;;493266;241;28688;-68
2022/07/31 03:20:22;;;;;;;2.40;2.30;;;17.00;99.90;;;;;;493227;241;28754;-69
2022/07/31 03:22:23;;;;;;;1.90;1.80;;;17.00;99.90;;;;;;493271;241;29051;-72
2022/07/31 03:24:25;;;;;;;3.03;2.67;;;16.90;99.90;;;;;;493273;241;28676;-67
2022/07/31 03:26:26;;;;;;;2.37;2.17;;;16.90;99.90;;;;;;493207;241;29231;-70
2022/07/31 03:28:27;;;;;;;2.20;2.10;;;16.80;99.90;;;;;;493208;241;29278;-68
2022/07/31 03:30:28;;;;;;;2.90;2.50;;;16.80;99.90;;;;;;493256;241;29204;-68
2022/07/31 03:32:30;;;;;;;2.23;2.13;;;16.90;99.90;;;;;;493265;241;29253;-71
2022/07/31 03:34:31;;;;;;;2.20;2.10;;;16.90;99.90;;;;;;493301;241;28671;-67
2022/07/31 03:36:32;;;;;;;2.10;2.00;;;16.90;99.90;;;;;;493116;241;28714;-69
2022/07/31 03:38:33;;;;;;;2.40;2.20;;;16.90;99.90;;;;;;493264;241;28663;-68
2022/07/31 03:40:35;;;;;;;1.93;1.83;;;16.90;99.90;;;;;;493248;241;28820;-68
2022/07/31 03:42:36;;;;;;;2.30;2.10;;;16.90;99.90;;;;;;493297;241;28824;-68
2022/07/31 03:44:37;;;;;;;2.80;2.60;;;16.90;99.90;;;;;;493270;241;28795;-68
2022/07/31 03:46:38;;;;;;;2.60;2.47;;;16.90;99.90;;;;;;493197;241;28791;-68
2022/07/31 03:48:40;;;;;;;2.20;2.10;;;16.90;99.90;;;;;;493270;241;28685;-68
2022/07/31 03:50:41;;;;;;;2.70;2.50;;;17.00;99.90;;;;;;493242;241;28801;-68
2022/07/31 03:52:42;;;;;;;2.20;2.10;;;17.00;99.90;;;;;;493275;241;29618;-73
2022/07/31 03:54:43;;;;;;;2.17;1.97;;;17.00;99.90;;;;;;493282;241;29135;-68
2022/07/31 03:56:45;;;;;;;2.33;2.13;;;17.00;99.90;;;;;;493205;241;29182;-69
2022/07/31 03:58:46;;;;;;;2.70;2.50;;;17.00;99.90;;;;;;493269;241;28667;-68
2022/07/31 04:00:47;;;;;;;2.80;2.60;;;17.00;99.90;;;;;;493269;241;28711;-68
2022/07/31 04:02:48;;;;;;;2.60;2.20;;;17.00;99.90;;;;;;493314;241;28725;-71
2022/07/31 04:04:50;;;;;;;2.60;2.40;;;16.90;99.90;;;;;;493296;241;28762;-68
2022/07/31 04:06:51;;;;;;;2.00;1.90;;;16.90;99.90;;;;;;493192;241;28708;-69
2022/07/31 04:08:52;;;;;;;2.20;2.10;;;17.00;99.90;;;;;;493240;241;28759;-68
2022/07/31 04:10:53;;;;;;;2.30;2.10;;;17.00;99.90;;;;;;493258;241;28814;-68
2022/07/31 04:12:55;;;;;;;2.43;2.23;;;17.00;99.90;;;;;;493285;241;28706;-71
2022/07/31 04:14:56;;;;;;;4.40;2.73;;;17.00;99.90;;;;;;493277;241;28664;-68
2022/07/31 04:16:57;;;;;;;2.40;2.20;;;17.00;99.90;;;;;;493177;241;29314;-68
2022/07/31 04:18:58;;;;;;;3.23;2.50;;;17.10;99.90;;;;;;493247;241;29238;-67
2022/07/31 04:21:00;;;;;;;2.67;2.47;;;17.20;99.90;;;;;;493257;241;29228;-69
2022/07/31 04:23:02;;;;;;;2.80;2.60;;;17.20;99.90;;;;;;493270;241;29189;-71
2022/07/31 04:25:02;;;;;;;2.30;2.20;;;17.20;99.90;;;;;;493185;241;28664;-69
2022/07/31 04:27:03;;;;;;;2.47;2.27;;;17.30;99.90;;;;;;493200;241;28696;-69
2022/07/31 04:29:05;;;;;;;2.20;2.10;;;17.30;99.90;;;;;;493267;241;28699;-68
2022/07/31 04:31:06;;;;;;;2.50;2.40;;;17.40;99.90;;;;;;493258;241;28777;-68
2022/07/31 04:33:07;;;;;;;2.30;2.20;;;17.40;99.90;;;;;;493316;241;28719;-72
2022/07/31 04:35:08;;;;;;;2.43;2.27;;;17.40;99.90;;;;;;493177;241;28727;-68
2022/07/31 04:37:10;;;;;;;2.33;2.20;;;17.40;99.90;;;;;;493201;241;29259;-69
2022/07/31 04:39:11;;;;;;;2.67;2.33;;;17.40;99.90;;;;;;493225;241;29296;-68
2022/07/31 04:41:12;;;;;;;2.60;2.40;;;17.40;99.90;;;;;;493205;241;29235;-69
2022/07/31 04:43:15;;;;;;;2.13;2.00;;;17.40;99.90;;;;;;493261;241;29332;-73
2022/07/31 04:45:15;;;;;;;2.60;2.23;;;17.30;99.90;;;;;;493162;241;28754;-68
2022/07/31 04:47:16;;;;;;;2.60;2.40;;;17.30;99.90;;;;;;493214;241;28714;-70
2022/07/31 04:49:17;;;;;;;2.63;2.43;;;17.40;99.90;;;;;;493245;241;28744;-68
2022/07/31 04:51:18;;;;;;;2.20;2.10;;;17.40;99.90;;;;;;493236;241;28691;-68
2022/07/31 04:53:20;;;;;;;2.43;2.23;;;17.40;99.90;;;;;;493278;241;28699;-72
2022/07/31 04:55:21;;;;;;;2.50;2.30;;;17.40;99.90;;;;;;493277;241;28771;-69
2022/07/31 04:57:22;;;;;;;2.53;2.37;;;17.40;99.90;;;;;;493189;241;28784;-69
2022/07/31 04:59:23;;;;;;;2.40;2.20;;;17.50;99.90;;;;;;493256;241;28664;-67
2022/07/31 05:01:25;;;;;;;2.67;2.47;;;17.60;99.90;;;;;;493266;241;28681;-68
2022/07/31 05:03:26;;;;;;;2.60;2.50;;;17.60;99.90;;;;;;493289;241;29169;-72
2022/07/31 05:05:27;;;;;;;2.57;2.37;;;17.60;99.90;;;;;;493268;241;29296;-69
2022/07/31 05:07:28;;;;;;;2.40;2.30;;;17.60;99.90;;;;;;493201;241;29170;-69
2022/07/31 05:09:32;;;;;;;2.50;2.30;;;17.50;99.90;;;;;;493195;241;28664;-69
2022/07/31 05:11:31;;;;;;;2.50;2.30;;;17.40;99.90;;;;;;493090;241;28703;-69
2022/07/31 05:13:32;;;;;;;2.47;2.27;;;17.50;99.90;;;;;;493279;241;28708;-71
2022/07/31 05:15:33;;;;;;;2.47;2.27;;;17.50;99.90;;;;;;493254;241;28905;-68
2022/07/31 05:17:35;;;;;;;2.70;2.50;;;17.50;99.90;;;;;;493212;241;28710;-70
2022/07/31 05:19:36;;;;;;;2.77;2.57;;;17.60;99.90;;;;;;493258;241;28680;-68
2022/07/31 05:21:37;;;;;;;2.57;2.43;;;17.60;99.90;;;;;;493253;241;28719;-69
2022/07/31 05:23:38;;;;;;;2.77;2.57;;;17.60;99.90;;;;;;493279;241;28737;-73
2022/07/31 05:25:40;;;;;;;2.90;2.70;;;17.80;99.90;;;;;;493205;241;28783;-69
2022/07/31 05:27:41;;;;;;;2.60;2.50;;;17.90;99.90;;;;;;493207;241;29177;-71
2022/07/31 05:29:42;;;;;;;2.40;2.30;;;18.00;99.90;;;;;;493271;241;29127;-69
2022/07/31 05:31:43;;;;;;;2.50;2.40;;;18.10;99.90;;;;;;493262;241;29185;-69
2022/07/31 05:33:45;;;;;;;2.37;2.27;;;18.20;99.90;;;;;;493255;241;29251;-72
2022/07/31 05:35:46;;;;;;;3.10;2.80;;;18.30;99.90;;;;;;493176;241;28666;-68
2022/07/31 05:37:47;;;;;;;2.53;2.33;;;18.30;99.90;;;;;;493210;241;28728;-69
2022/07/31 05:39:48;;;;;;;2.37;2.17;;;18.40;99.90;;;;;;493278;241;28676;-68
2022/07/31 05:41:51;;;;;;;2.60;2.40;;;18.50;99.90;;;;;;493296;241;28767;-69
2022/07/31 05:43:51;;;;;;;2.40;2.30;;;18.50;99.90;;;;;;493231;241;28779;-72
2022/07/31 05:45:52;;;;;;;2.23;2.00;;;18.50;99.90;;;;;;493254;241;28680;-68
2022/07/31 05:47:53;;;;;;;2.23;2.13;;;18.60;99.90;;;;;;493214;241;29285;-69
2022/07/31 05:49:55;;;;;;;2.67;2.33;;;18.60;99.90;;;;;;493264;241;29240;-68
2022/07/31 05:51:56;;;;;;;2.10;2.00;;;18.70;99.90;;;;;;493258;241;29159;-69
2022/07/31 05:53:57;;;;;;;2.20;2.10;;;18.80;99.90;;;;;;493321;241;29309;-72
2022/07/31 05:55:58;;;;;;;2.03;1.93;;;18.90;99.90;;;;;;493309;241;28667;-68
2022/07/31 05:58:00;;;;;;;2.50;2.30;;;18.90;99.90;;;;;;493241;241;28784;-70
2022/07/31 06:00:01;;;;;;;2.07;1.97;;;19.10;99.90;;;;;;493223;241;28779;-68
2022/07/31 06:02:02;;;;;;;2.77;2.30;;;19.10;99.90;;;;;;493098;241;28691;-69
2022/07/31 06:04:05;;;;;;;2.30;2.10;;;19.10;99.90;;;;;;493100;241;28732;-70
2022/07/31 06:06:06;;;;;;;2.20;2.10;;;19.20;99.90;;;;;;492995;241;28707;-71
2022/07/31 06:08:08;;;;;;;2.30;2.20;;;19.30;99.90;;;;;;492982;241;28715;-71
2022/07/31 06:10:09;;;;;;;2.20;2.10;;;19.40;99.90;;;;;;493272;241;29232;-69
2022/07/31 06:12:10;;;;;;;2.30;2.20;;;19.50;99.90;;;;;;493293;241;29190;-70
2022/07/31 06:14:11;;;;;;;2.63;2.43;;;19.60;99.90;;;;;;493211;241;29129;-69
2022/07/31 06:16:12;;;;;;;2.23;2.03;;;19.70;99.90;;;;;;493145;241;29127;-69
2022/07/31 06:18:14;;;;;;;2.33;2.23;;;19.80;99.90;;;;;;493287;241;28787;-72
2022/07/31 06:20:15;;;;;;;2.33;2.23;;;19.90;99.90;;;;;;493275;241;28681;-69
2022/07/31 06:22:16;;;;;;;2.17;2.07;;;20.00;99.90;;;;;;493265;241;28711;-69
2022/07/31 06:24:17;;;;;;;2.20;2.10;;;20.10;99.90;;;;;;493253;241;28703;-69
2022/07/31 06:26:19;;;;;;;1.90;1.80;;;20.20;99.90;;;;;;493176;241;28702;-69
2022/07/31 06:28:20;;;;;;;2.20;2.10;;;20.30;99.90;;;;;;493294;241;28707;-72
2022/07/31 06:30:21;;;;;;;2.50;2.30;;;20.30;99.90;;;;;;493276;241;28784;-69
2022/07/31 06:32:22;;;;;;;2.00;1.90;;;20.40;99.90;;;;;;493270;241;28790;-71
2022/07/31 06:34:24;;;;;;;2.70;2.40;;;20.40;99.90;;;;;;493253;241;29132;-69
2022/07/31 06:36:25;;;;;;;2.30;2.20;;;20.50;99.90;;;;;;493036;241;29285;-69
2022/07/31 06:38:29;;;;;;;2.30;2.10;;;20.50;99.90;;;;;;493297;241;29254;-74
2022/07/31 06:40:27;;;;;;;2.20;2.10;;;20.60;99.90;;;;;;493048;241;29215;-69
2022/07/31 06:42:29;;;;;;;1.90;1.80;;;20.60;99.90;;;;;;493258;241;28699;-70
2022/07/31 06:44:30;;;;;;;2.40;2.30;;;20.70;99.90;;;;;;493263;241;28709;-69
2022/07/31 06:46:31;;;;;;;2.30;2.20;;;20.80;99.90;;;;;;493172;241;28730;-70
2022/07/31 06:48:32;;;;;;;2.50;2.23;;;20.90;99.90;;;;;;493282;241;28791;-68
2022/07/31 06:50:34;;;;;;;2.43;2.23;;;21.00;99.90;;;;;;493271;241;28660;-70
2022/07/31 06:52:35;;;;;;;2.60;2.40;;;21.10;99.90;;;;;;493127;241;28769;-69
2022/07/31 06:54:36;;;;;;;2.17;2.07;;;21.20;99.90;;;;;;493266;241;28776;-69
2022/07/31 06:56:37;;;;;;;2.13;1.90;;;21.20;99.90;;;;;;493109;241;28734;-69
2022/07/31 06:58:39;;;;;;;1.70;1.60;;;21.20;99.90;;;;;;493281;241;29187;-72
2022/07/31 07:00:40;;;;;;;1.70;1.60;;;21.30;99.90;;;;;;493272;241;29147;-69
2022/07/31 07:02:42;;;;;;;2.30;2.13;;;21.40;99.90;;;;;;493279;241;29173;-69
2022/07/31 07:04:43;;;;;;;2.37;2.03;;;21.50;99.90;;;;;;493250;241;29232;-69
2022/07/31 07:06:44;;;;;;;2.57;2.37;;;21.60;99.90;;;;;;493149;241;28749;-70
2022/07/31 07:08:45;;;;;;;2.30;2.20;;;21.60;99.90;;;;;;493284;241;28783;-69
2022/07/31 07:10:46;;;;;;;2.10;1.90;;;21.50;99.90;;;;;;493290;241;28671;-69
2022/07/31 07:12:48;;;;;;;2.03;1.93;;;21.60;99.90;;;;;;493282;241;28719;-71
2022/07/31 07:14:49;;;;;;;2.30;2.03;;;21.50;99.90;;;;;;493280;241;28665;-68
2022/07/31 07:16:50;;;;;;;1.90;1.80;;;21.40;99.90;;;;;;493057;241;28707;-69
2022/07/31 07:18:51;;;;;;;2.00;1.90;;;21.30;99.90;;;;;;493285;241;28739;-72
2022/07/31 07:20:53;;;;;;;2.57;2.23;;;21.20;99.90;;;;;;493255;241;28751;-69
2022/07/31 07:22:54;;;;;;;2.20;2.00;;;21.20;99.90;;;;;;493274;241;28702;-69
2022/07/31 07:24:55;;;;;;;1.87;1.77;;;21.20;99.90;;;;;;493279;241;29151;-69
2022/07/31 07:26:56;;;;;;;2.00;1.90;;;21.40;99.90;;;;;;493120;241;29238;-69
2022/07/31 07:28:58;;;;;;;2.03;1.93;;;21.50;99.90;;;;;;493306;241;29189;-73
2022/07/31 07:30:59;;;;;;;1.93;1.83;;;21.60;99.90;;;;;;493312;241;28663;-69
2022/07/31 07:33:00;;;;;;;2.60;2.40;;;21.70;99.90;;;;;;493279;241;28795;-70
2022/07/31 07:35:02;;;;;;;2.00;1.90;;;21.80;99.90;;;;;;493096;241;28775;-69
2022/07/31 07:37:03;;;;;;;2.23;2.03;;;21.80;99.90;;;;;;493047;241;28691;-70
2022/07/31 07:39:04;;;;;;;1.90;1.70;;;21.90;99.90;;;;;;493282;241;28770;-72
2022/07/31 07:41:05;;;;;;;2.13;2.03;;;22.00;99.90;;;;;;493274;241;28771;-69
2022/07/31 07:43:06;;;;;;;2.63;2.20;;;22.10;99.90;;;;;;493266;241;28794;-69
2022/07/31 07:45:08;;;;;;;2.30;2.10;;;22.10;99.90;;;;;;493250;241;28735;-69
2022/07/31 07:47:09;;;;;;;2.33;2.13;;;22.20;99.90;;;;;;493078;241;28692;-69
2022/07/31 07:49:10;;;;;;;3.33;2.13;;;22.20;99.90;;;;;;493272;241;29244;-74
2022/07/31 07:51:12;;;;;;;2.47;2.27;;;22.30;99.90;;;;;;493246;241;29152;-70
2022/07/31 07:53:13;;;;;;;2.57;2.37;;;22.30;99.90;;;;;;493233;241;29214;-69
2022/07/31 07:55:14;;;;;;;2.93;2.27;;;22.30;99.90;;;;;;493267;241;29434;-68
2022/07/31 07:57:15;;;;;;;3.43;2.30;;;22.30;99.90;;;;;;493160;241;28731;-69
2022/07/31 07:59:16;;;;;;;2.13;1.93;;;22.20;99.90;;;;;;493263;241;28700;-70
2022/07/31 08:01:18;;;;;;;2.53;2.33;;;22.30;99.90;;;;;;493252;241;28710;-68
2022/07/31 08:03:19;;;;;;;2.83;2.00;;;22.30;99.90;;;;;;493253;241;28707;-69
2022/07/31 08:05:20;;;;;;;2.17;1.97;;;22.30;99.90;;;;;;493254;241;28702;-69
2022/07/31 08:07:21;;;;;;;2.23;2.13;;;22.40;99.90;;;;;;493131;241;28676;-69
2022/07/31 08:09:23;;;;;;;1.90;1.80;;;22.50;99.90;;;;;;493261;241;28734;-71
2022/07/31 08:11:24;;;;;;;2.97;1.80;;;22.60;99.90;;;;;;493254;241;28655;-69
2022/07/31 08:13:25;;;;;;;2.33;2.17;;;22.80;99.90;;;;;;493279;241;29248;-70
2022/07/31 08:15:28;;;;;;;1.80;1.70;;;22.90;99.90;;;;;;493274;241;29330;-69
2022/07/31 08:17:28;;;;;;;2.00;1.90;;;22.90;99.90;;;;;;493085;241;29181;-69
2022/07/31 08:19:29;;;;;;;1.83;1.73;;;23.20;99.90;;;;;;493267;241;29300;-71
2022/07/31 08:21:30;;;;;;;2.23;2.03;;;23.30;99.90;;;;;;493262;241;28755;-69
2022/07/31 08:23:31;;;;;;;4.00;2.00;;;23.50;99.90;;;;;;493263;241;28782;-69
2022/07/31 08:25:33;;;;;;;2.20;2.03;;;23.60;99.90;;;;;;493291;241;28696;-72
2022/07/31 08:27:34;;;;;;;1.97;1.83;;;23.80;99.90;;;;;;493222;241;28683;-69
2022/07/31 08:29:35;;;;;;;2.00;1.80;;;23.90;99.90;;;;;;493256;241;28804;-70
2022/07/31 08:31:36;;;;;;;1.80;1.70;;;23.90;99.90;;;;;;493194;241;28671;-69
2022/07/31 08:33:38;;;;;;;1.97;1.87;;;24.00;99.90;;;;;;493191;241;28811;-69
2022/07/31 08:35:39;;;;;;;2.00;1.87;;;24.10;99.90;;;;;;492760;241;29055;-73
2022/07/31 08:37:40;;;;;;;1.90;1.80;;;24.20;99.90;;;;;;493226;241;29219;-69
2022/07/31 08:39:41;;;;;;;1.90;1.80;;;24.30;99.90;;;;;;493268;241;29242;-69
2022/07/31 08:41:43;;;;;;;3.37;2.00;;;24.40;99.90;;;;;;493271;241;29225;-69
2022/07/31 08:43:44;;;;;;;2.10;1.90;;;24.50;99.90;;;;;;493282;241;29188;-70
2022/07/31 08:45:45;;;;;;;1.90;1.80;;;24.50;99.90;;;;;;493295;241;28702;-70
2022/07/31 08:47:47;;;;;;;2.80;1.70;;;24.60;99.90;;;;;;493216;241;28720;-70
2022/07/31 08:49:48;;;;;;;2.13;1.93;;;24.70;99.90;;;;;;493215;241;28722;-72
2022/07/31 08:51:49;;;;;;;1.90;1.80;;;24.60;99.90;;;;;;493285;241;28663;-69
2022/07/31 08:53:50;;;;;;;2.10;1.90;;;24.60;99.90;;;;;;493253;241;28687;-70
2022/07/31 08:55:51;;;;;;;1.90;1.80;;;24.60;99.90;;;;;;493289;241;28707;-73
2022/07/31 08:57:53;;;;;;;2.73;1.70;;;24.60;99.90;;;;;;493219;241;28672;-69
2022/07/31 08:59:54;;;;;;;2.03;1.53;;;24.60;99.90;;;;;;493315;241;28707;-70
2022/07/31 09:01:58;;;;;;;1.93;1.77;;;24.60;99.90;;;;;;493286;241;28674;-69
2022/07/31 09:03:59;;;;;;;1.87;1.77;;;24.50;99.90;;;;;;493287;241;29225;-70
2022/07/31 09:06:00;;;;;;;2.00;1.83;;;24.50;99.90;;;;;;493203;241;29292;-71
2022/07/31 09:08:02;;;;;;;1.97;1.87;;;24.40;99.90;;;;;;493255;241;28779;-69
2022/07/31 09:10:03;;;;;;;1.90;1.80;;;24.40;99.90;;;;;;493314;241;28659;-69
2022/07/31 09:12:04;;;;;;;1.80;1.70;;;24.40;99.90;;;;;;493299;241;28738;-72
2022/07/31 09:14:06;;;;;;;2.80;1.83;;;24.50;99.90;;;;;;493252;241;28668;-69
2022/07/31 09:16:07;;;;;;;2.00;1.80;;;24.70;99.90;;;;;;493206;241;28741;-70
2022/07/31 09:18:08;;;;;;;1.73;1.63;;;24.50;99.90;;;;;;493265;241;28722;-69
2022/07/31 09:20:09;;;;;;;2.77;2.50;;;24.50;99.90;;;;;;493301;241;28679;-69
2022/07/31 09:22:10;;;;;;;1.77;1.67;;;24.30;99.90;;;;;;493269;241;28711;-70
2022/07/31 09:24:12;;;;;;;1.93;1.83;;;24.20;99.90;;;;;;493263;241;29131;-69
2022/07/31 09:26:14;;;;;;;2.43;1.97;;;24.20;99.90;;;;;;493207;241;29315;-69
2022/07/31 09:28:14;;;;;;;1.90;1.80;;;24.10;99.90;;;;;;491686;241;36593;-69
2022/07/31 09:30:15;;;;;;;1.83;1.73;;;24.20;99.90;;;;;;493294;241;28054;-68
2022/07/31 09:32:17;;;;;;;2.00;1.90;;;24.20;99.90;;;;;;493245;241;28687;-71
2022/07/31 09:34:18;;;;;;;2.53;1.90;;;24.30;99.90;;;;;;493249;241;28664;-69
2022/07/31 09:36:19;;;;;;;2.80;2.03;;;24.40;99.90;;;;;;493057;241;28736;-70
2022/07/31 09:38:22;;;;;;;3.20;1.80;;;24.40;99.90;;;;;;493286;241;28688;-69
2022/07/31 09:40:22;;;;;;;1.80;1.70;;;24.50;99.90;;;;;;493215;241;28772;-69
2022/07/31 09:42:24;;;;;;;4.20;2.83;;;24.50;99.90;;;;;;493263;241;28782;-69
2022/07/31 09:44:24;;;;;;;1.70;1.60;;;24.70;99.90;;;;;;493234;241;28658;-70
2022/07/31 09:46:26;;;;;;;5.03;1.70;;;24.90;99.90;;;;;;493210;241;28729;-70
2022/07/31 09:48:27;;;;;;;1.80;1.70;;;25.00;99.90;;;;;;493244;241;29735;-69
2022/07/31 09:50:28;;;;;;;2.23;1.83;;;25.10;99.90;;;;;;493263;241;29198;-70
2022/07/31 09:52:29;;;;;;;1.93;1.83;;;25.10;99.90;;;;;;493256;241;29208;-70
2022/07/31 09:54:30;;;;;;;2.00;1.90;;;25.10;99.90;;;;;;493264;241;29234;-69
2022/07/31 09:56:32;;;;;;;2.03;1.67;;;25.20;99.90;;;;;;493170;241;28700;-70
2022/07/31 09:58:33;;;;;;;2.03;1.87;;;25.30;99.90;;;;;;493275;241;28699;-70
2022/07/31 10:00:34;;;;;;;2.50;1.90;;;25.30;99.90;;;;;;493160;241;28726;-69
2022/07/31 10:02:35;;;;;;;2.20;2.10;;;25.40;99.90;;;;;;493259;241;28730;-71
2022/07/31 10:04:38;;;;;;;2.00;1.80;;;25.30;99.90;;;;;;493268;241;28692;-69
2022/07/31 10:06:38;;;;;;;3.27;2.10;;;25.40;99.90;;;;;;493128;241;28822;-70
2022/07/31 10:08:39;;;;;;;2.20;2.10;;;25.00;99.90;;;;;;493210;241;29053;-69
2022/07/31 10:10:40;;;;;;;1.87;1.70;;;25.00;99.90;;;;;;493292;241;28667;-69
2022/07/31 10:12:42;;;;;;;2.33;1.90;;;25.10;99.90;;;;;;493260;241;29217;-71
2022/07/31 10:14:43;;;;;;;1.63;1.53;;;25.30;99.90;;;;;;493270;241;29167;-69
2022/07/31 10:16:44;;;;;;;2.23;2.00;;;25.50;99.90;;;;;;493177;241;29261;-70
2022/07/31 10:18:45;;;;;;;6.97;2.20;;;25.60;99.90;;;;;;493278;241;29880;-69
2022/07/31 10:20:47;;;;;;;2.90;2.23;;;25.40;99.90;;;;;;493280;241;28737;-68
2022/07/31 10:22:48;;;;;;;2.63;2.10;;;25.50;99.90;;;;;;493269;241;28732;-71
2022/07/31 10:24:49;;;;;;;7.40;1.80;;;25.60;99.90;;;;;;493257;241;28671;-69
2022/07/31 10:26:50;;;;;;;2.30;1.90;;;25.50;99.90;;;;;;493183;241;28792;-69
2022/07/31 10:28:52;;;;;;;4.03;2.30;;;25.60;99.90;;;;;;493262;241;28687;-70
2022/07/31 10:30:53;;;;;;;1.63;1.53;;;25.60;99.90;;;;;;493276;241;28740;-69